KNLC/NLC METAR and TAF weather

Enter ICAO airport designator
Station Type Date Time Source
KNLC METAR 2023/02/05 13:56 UTC NOAA

KNLC 051356Z AUTO 02008KT 10SM CLR 08/06 A3019 RMK AO2 SLP225 T00780061


Station Type Date Time Source
KNLC Decoded METAR 2023/02/05 13:56 UTC NOAA

LEMOORE NAVAL AIR STATION, CA, United States (KNLC) 36-20N 119-57W 72M
Feb 05, 2023 - 08:56 AM EST / 2023.02.05 1356 UTC
Wind: from the NNE (020 degrees) at 9 MPH (8 KT):0
Visibility: 10 mile(s):0
Sky conditions: clear
Temperature: 46.0 F (7.8 C)
Dew Point: 43.0 F (6.1 C)
Relative Humidity: 88%
Pressure (altimeter): 30.19 in. Hg (1022 hPa)
ob: KNLC 051356Z AUTO 02008KT 10SM CLR 08/06 A3019 RMK AO2 SLP225 T00780061
cycle: 14

Station Type Date Time Source
KNLC TAF 2023/02/04 23:12 UTC NOAA

TAF TAF KNLC 0423/0523 15010KT 9999 SCT055 SCT140 OVC280 QNH306INS
FM050600 17008G15KT 9000 -SHRA BKN030 650909 QNH3001INS
TEMPO 0506/0512 9000 -SHRA BKN025
FM051200 29009KT 9999 VCSH BKN020 OVC050 640505 QNH3009INS
FM051800 34010KT 9999 VCSH BKN050 640505 QNH3018INS
TEMPO 0520/0523 35012G20KT LAST NO
AMDS AFT 0502 NEXT 0515 T07/0514Z T16/0522Z FS30208

Example: see airport list